Wilson Cadiz — 8PSY — position and weather

sailwx.info

Track history (hours):
 
Tides and Currents Weather Stations Pressure Air Temp Water Temp Dewpoint Dewpoint Depression Visibility Wind Speed Wind Dir Waves Ship Positions

Wilson Cadiz

Last reported at 2015-Apr-17 03:27 UTC. Time now 2015-Apr-18 04:56 UTC.
Position N 66°34' E 011°43'.

Length 100 m; draft 5.9 m.

Type: Ship. MMSI: 314216000.

Date/timePositionNaut miles runAvg speedWind from/ knotsBaromVisibWave heightAir tempDewpointWater temp
2015-Apr-17 03:27N 66°34' E 011°43'78 9.8
2015-Apr-16 19:33N 67°31' E 013°59'1010.2
2015-Apr-16 18:33N 67°30' E 014°25'1310.5
2015-Apr-16 17:22N 67°35' E 014°55'8 9.9
2015-Apr-16 16:33N 67°32' E 015°15'1 0.1
2015-Apr-16 02:33N 67°33' E 015°12'10 9.9
2015-Apr-16 01:33N 67°33' E 014°46'1111.2
2015-Apr-16 00:32N 67°30' E 014°18'8 7.7
2015-Apr-15 23:32N 67°31' E 013°58'8 8.2
2015-Apr-15 22:32N 67°26' E 013°40'61 8.3
2015-Apr-15 15:13N 66°40' E 011°58'6 8.6
2015-Apr-15 14:33N 66°35' E 011°51'9 9.0
2015-Apr-15 13:33N 66°27' E 011°40'16110.7
2015-Apr-14 22:30N 63°56' E 009°24'1212.8
2015-Apr-14 21:34N 63°45' E 009°14'11 8.7
2015-Apr-14 20:17N 63°37' E 009°31'7 8.7
2015-Apr-14 19:26N 63°37' E 009°47'1112.9
2015-Apr-14 18:33N 63°27' E 010°00'8 8.2
2015-Apr-14 17:33N 63°19' E 009°53'0 0.0
2015-Apr-14 16:33N 63°19' E 009°53'0 0.0
2015-Apr-14 15:30N 63°19' E 009°53'0 0.0
2015-Apr-14 14:33N 63°19' E 009°53'0 0.0
2015-Apr-14 13:33N 63°19' E 009°53'0 0.0
2015-Apr-14 12:33N 63°19' E 009°53'0 0.0
2015-Apr-14 11:33N 63°19' E 009°53'0 0.0
2015-Apr-14 10:33N 63°19' E 009°53'0 0.0
2015-Apr-14 09:33N 63°19' E 009°53'0 0.0
2015-Apr-14 08:33N 63°19' E 009°53'0 0.0
2015-Apr-14 07:33N 63°19' E 009°53'0 0.0
2015-Apr-14 06:33N 63°19' E 009°53'0 0.0
2015-Apr-14 05:33N 63°19' E 009°53'0 0.0
2015-Apr-14 04:30N 63°19' E 009°53'0 0.0
2015-Apr-14 03:33N 63°19' E 009°53'0 0.0
2015-Apr-14 02:33N 63°19' E 009°53'0 0.0
2015-Apr-14 01:33N 63°19' E 009°53'0 0.0
2015-Apr-14 00:33N 63°19' E 009°53'0 0.0
2015-Apr-13 23:33N 63°19' E 009°53'0 0.0
2015-Apr-13 22:33N 63°19' E 009°53'0 0.0
2015-Apr-13 21:33N 63°19' E 009°53'0 0.0
2015-Apr-13 20:33N 63°19' E 009°53'0 0.0
2015-Apr-13 19:30N 63°19' E 009°53'0 0.0
2015-Apr-13 18:33N 63°19' E 009°53'1 1.2
2015-Apr-13 17:33N 63°20' E 009°54'1010.0
2015-Apr-13 16:33N 63°30' E 009°54'10 9.7
2015-Apr-13 15:28N 63°38' E 009°39'469 9.4
2015-Apr-11 13:33N 58°42' W 002°55'1413.9
2015-Apr-11 12:31N 58°43' W 003°22'1212.1
2015-Apr-11 11:33N 58°43' W 003°45'1111.5
2015-Apr-11 10:33N 58°42' W 004°07'1111.3
2015-Apr-11 09:33N 58°41' W 004°28'39 9.6
2015-Apr-11 05:32N 58°19' W 005°29'1110.8
2015-Apr-11 04:33N 58°10' W 005°40'1111.1
2015-Apr-11 03:32N 58°01' W 005°52'12510.3
2015-Apr-10 15:22N 56°03' W 007°10'910.2
2015-Apr-10 14:30N 55°56' W 007°02'9 9.9
2015-Apr-10 13:33N 55°48' W 006°53'9 8.9
2015-Apr-10 12:33N 55°40' W 006°45'8 8.0
2015-Apr-10 11:33N 55°35' W 006°34'9 8.7
2015-Apr-10 10:33N 55°30' W 006°22'9 9.3
2015-Apr-10 09:33N 55°25' W 006°07'1110.9
2015-Apr-10 08:33N 55°17' W 005°54'1312.5
2015-Apr-10 07:33N 55°08' W 005°40'1312.9
2015-Apr-10 06:33N 54°58' W 005°25'1312.6
2015-Apr-10 05:33N 54°46' W 005°17'1212.6
2015-Apr-10 04:33N 54°35' W 005°07'1212.3
2015-Apr-10 03:33N 54°23' W 005°07'1211.8
2015-Apr-10 02:32N 54°11' W 005°08'1111.7
2015-Apr-10 01:33N 53°59' W 005°09'14911.2
2015-Apr-09 12:13N 51°35' W 006°07'911.8
2015-Apr-09 11:27N 51°26' W 006°09'1511.6
2015-Apr-09 10:09N 51°11' W 006°13'3411.7
2015-Apr-09 07:15N 50°37' W 006°21'146 9.9
2015-Apr-08 16:33N 48°14' W 007°04'1211.6
2015-Apr-08 15:33N 48°02' W 007°07'2211.1
2015-Apr-08 13:33N 47°40' W 007°10'10 9.9
2015-Apr-08 12:33N 47°31' W 007°11'  
Track history (hours):
 
Tides and Currents Weather Stations Pressure Air Temp Water Temp Dewpoint Dewpoint Depression Visibility Wind Speed Wind Dir Waves Ship Positions

Wilson Cadiz

Last reported at 2015-Apr-17 03:27 UTC. Time now 2015-Apr-18 04:56 UTC.
Position N 66°34' E 011°43'.

Length 100 m; draft 5.9 m.

Type: Ship. MMSI: 314216000.

Date/timePositionNaut miles runAvg speedWind from/ knotsBaromVisibWave heightAir tempDewpointWater temp
2015-Apr-17 03:27N 66°34' E 011°43'78 9.8
2015-Apr-16 19:33N 67°31' E 013°59'1010.2
2015-Apr-16 18:33N 67°30' E 014°25'1310.5
2015-Apr-16 17:22N 67°35' E 014°55'8 9.9
2015-Apr-16 16:33N 67°32' E 015°15'1 0.1
2015-Apr-16 02:33N 67°33' E 015°12'10 9.9
2015-Apr-16 01:33N 67°33' E 014°46'1111.2
2015-Apr-16 00:32N 67°30' E 014°18'8 7.7
2015-Apr-15 23:32N 67°31' E 013°58'8 8.2
2015-Apr-15 22:32N 67°26' E 013°40'61 8.3
2015-Apr-15 15:13N 66°40' E 011°58'6 8.6
2015-Apr-15 14:33N 66°35' E 011°51'9 9.0
2015-Apr-15 13:33N 66°27' E 011°40'16110.7
2015-Apr-14 22:30N 63°56' E 009°24'1212.8
2015-Apr-14 21:34N 63°45' E 009°14'11 8.7
2015-Apr-14 20:17N 63°37' E 009°31'7 8.7
2015-Apr-14 19:26N 63°37' E 009°47'1112.9
2015-Apr-14 18:33N 63°27' E 010°00'8 8.2
2015-Apr-14 17:33N 63°19' E 009°53'0 0.0
2015-Apr-14 16:33N 63°19' E 009°53'0 0.0
2015-Apr-14 15:30N 63°19' E 009°53'0 0.0
2015-Apr-14 14:33N 63°19' E 009°53'0 0.0
2015-Apr-14 13:33N 63°19' E 009°53'0 0.0
2015-Apr-14 12:33N 63°19' E 009°53'0 0.0
2015-Apr-14 11:33N 63°19' E 009°53'0 0.0
2015-Apr-14 10:33N 63°19' E 009°53'0 0.0
2015-Apr-14 09:33N 63°19' E 009°53'0 0.0
2015-Apr-14 08:33N 63°19' E 009°53'0 0.0
2015-Apr-14 07:33N 63°19' E 009°53'0 0.0
2015-Apr-14 06:33N 63°19' E 009°53'0 0.0
2015-Apr-14 05:33N 63°19' E 009°53'0 0.0
2015-Apr-14 04:30N 63°19' E 009°53'0 0.0
2015-Apr-14 03:33N 63°19' E 009°53'0 0.0
2015-Apr-14 02:33N 63°19' E 009°53'0 0.0
2015-Apr-14 01:33N 63°19' E 009°53'0 0.0
2015-Apr-14 00:33N 63°19' E 009°53'0 0.0
2015-Apr-13 23:33N 63°19' E 009°53'0 0.0
2015-Apr-13 22:33N 63°19' E 009°53'0 0.0
2015-Apr-13 21:33N 63°19' E 009°53'0 0.0
2015-Apr-13 20:33N 63°19' E 009°53'0 0.0
2015-Apr-13 19:30N 63°19' E 009°53'0 0.0
2015-Apr-13 18:33N 63°19' E 009°53'1 1.2
2015-Apr-13 17:33N 63°20' E 009°54'1010.0
2015-Apr-13 16:33N 63°30' E 009°54'10 9.7
2015-Apr-13 15:28N 63°38' E 009°39'469 9.4
2015-Apr-11 13:33N 58°42' W 002°55'1413.9
2015-Apr-11 12:31N 58°43' W 003°22'1212.1
2015-Apr-11 11:33N 58°43' W 003°45'1111.5
2015-Apr-11 10:33N 58°42' W 004°07'1111.3
2015-Apr-11 09:33N 58°41' W 004°28'39 9.6
2015-Apr-11 05:32N 58°19' W 005°29'1110.8
2015-Apr-11 04:33N 58°10' W 005°40'1111.1
2015-Apr-11 03:32N 58°01' W 005°52'12510.3
2015-Apr-10 15:22N 56°03' W 007°10'910.2
2015-Apr-10 14:30N 55°56' W 007°02'9 9.9
2015-Apr-10 13:33N 55°48' W 006°53'9 8.9
2015-Apr-10 12:33N 55°40' W 006°45'8 8.0
2015-Apr-10 11:33N 55°35' W 006°34'9 8.7
2015-Apr-10 10:33N 55°30' W 006°22'9 9.3
2015-Apr-10 09:33N 55°25' W 006°07'1110.9
2015-Apr-10 08:33N 55°17' W 005°54'1312.5
2015-Apr-10 07:33N 55°08' W 005°40'1312.9
2015-Apr-10 06:33N 54°58' W 005°25'1312.6
2015-Apr-10 05:33N 54°46' W 005°17'1212.6
2015-Apr-10 04:33N 54°35' W 005°07'1212.3
2015-Apr-10 03:33N 54°23' W 005°07'1211.8
2015-Apr-10 02:32N 54°11' W 005°08'1111.7
2015-Apr-10 01:33N 53°59' W 005°09'14911.2
2015-Apr-09 12:13N 51°35' W 006°07'911.8
2015-Apr-09 11:27N 51°26' W 006°09'1511.6
2015-Apr-09 10:09N 51°11' W 006°13'3411.7
2015-Apr-09 07:15N 50°37' W 006°21'146 9.9
2015-Apr-08 16:33N 48°14' W 007°04'1211.6
2015-Apr-08 15:33N 48°02' W 007°07'2211.1
2015-Apr-08 13:33N 47°40' W 007°10'10 9.9
2015-Apr-08 12:33N 47°31' W 007°11'  

Dump ship's entire track history